Time;durP1;ratioP1;P1;durP2;ratioP2;P2;SDS_P1;SDS_P2;PMS_P1;PMS_P2;Temp;Humidity;BMP_temperature;BMP_pressure;BME280_temperature;BME280_humidity;BME280_pressure;Samples;Min_cycle;Max_cycle;Signal;HPM_P1;HPM_P2
2020/12/02 00:00:41;;;;;;;;;;;4.60;84.60;;;;;;4968771;28;19929;-45
2020/12/02 00:03:21;;;;;;;;;;;4.60;84.60;;;;;;4979806;28;19936;-44
2020/12/02 00:05:51;;;;;;;;;;;4.60;84.60;;;;;;4989179;28;19933;-44
2020/12/02 00:08:34;;;;;;;;;;;4.60;84.50;;;;;;4985288;28;20297;-44
2020/12/02 00:11:04;;;;;;;;;;;4.60;84.50;;;;;;4977068;28;19929;-45
2020/12/02 00:13:33;;;;;;;;;;;4.70;84.50;;;;;;4983537;28;21140;-46
2020/12/02 00:16:02;;;;;;;;;;;4.60;84.50;;;;;;4976668;28;20336;-45
2020/12/02 00:18:30;;;;;;;;;;;4.60;84.40;;;;;;4983515;28;19933;-44
2020/12/02 00:21:02;;;;;;;;;;;4.60;84.40;;;;;;4984479;28;19937;-45
2020/12/02 00:23:30;;;;;;;;;;;4.60;84.40;;;;;;4992706;28;19932;-46
2020/12/02 00:25:58;;;;;;;;;;;4.60;84.40;;;;;;4991148;28;19937;-47
2020/12/02 00:28:26;;;;;;;;;;;4.60;84.50;;;;;;4997897;28;19929;-43
2020/12/02 00:30:53;;;;;;;;;;;4.60;84.30;;;;;;4982542;28;19933;-43
2020/12/02 00:33:22;;;;;;;;;;;4.70;84.40;;;;;;4982364;28;19991;-46
2020/12/02 00:35:49;;;;;;;;;;;4.60;84.30;;;;;;4991634;28;19930;-45
2020/12/02 00:38:17;;;;;;;;;;;4.70;84.40;;;;;;4981570;28;20010;-45
2020/12/02 00:40:44;;;;;;;;;;;4.60;84.30;;;;;;4984191;28;20028;-44
2020/12/02 00:43:13;;;;;;;;;;;4.70;84.30;;;;;;4980305;28;20413;-46
2020/12/02 00:45:41;;;;;;;;;;;4.70;84.30;;;;;;4980574;28;19955;-45
2020/12/02 00:48:12;;;;;;;;;;;4.70;84.20;;;;;;4980410;28;19929;-45
2020/12/02 00:50:43;;;;;;;;;;;4.70;84.20;;;;;;4978095;28;19929;-46
2020/12/02 00:53:15;;;;;;;;;;;4.70;84.20;;;;;;4976042;28;20406;-44
2020/12/02 00:55:44;;;;;;;;;;;4.70;84.20;;;;;;4985026;28;19933;-46
2020/12/02 00:58:18;;;;;;;;;;;4.70;83.90;;;;;;4971816;28;21111;-44
2020/12/02 01:00:46;;;;;;;;;;;4.70;84.00;;;;;;4973872;28;20061;-45
2020/12/02 01:03:18;;;;;;;;;;;4.70;84.10;;;;;;4972024;28;19976;-45
2020/12/02 01:05:46;;;;;;;;;;;4.70;84.00;;;;;;4979083;28;20699;-46
2020/12/02 01:08:16;;;;;;;;;;;4.70;84.10;;;;;;4978046;28;19925;-44
2020/12/02 01:10:46;;;;;;;;;;;4.70;84.10;;;;;;4984319;28;19952;-46
2020/12/02 01:13:13;;;;;;;;;;;4.70;83.90;;;;;;4978177;28;21892;-45
2020/12/02 01:15:43;;;;;;;;;;;4.70;83.90;;;;;;4982800;28;20396;-47
2020/12/02 01:18:14;;;;;;;;;;;4.70;83.90;;;;;;4993440;28;20325;-46
2020/12/02 01:20:43;;;;;;;;;;;4.70;83.80;;;;;;4983397;28;19940;-46
2020/12/02 01:23:11;;;;;;;;;;;4.70;83.80;;;;;;4983121;28;19929;-46
2020/12/02 01:25:39;;;;;;;;;;;4.60;84.00;;;;;;4985837;28;19937;-43
2020/12/02 01:28:07;;;;;;;;;;;4.60;83.90;;;;;;4989871;28;19930;-44
2020/12/02 01:30:36;;;;;;;;;;;4.60;83.90;;;;;;4978405;28;20381;-46
2020/12/02 01:33:05;;;;;;;;;;;4.60;83.90;;;;;;4988203;28;20464;-46
2020/12/02 01:35:33;;;;;;;;;;;4.60;83.80;;;;;;4970326;28;20292;-43
2020/12/02 01:38:02;;;;;;;;;;;4.60;83.80;;;;;;4979667;28;19929;-44
2020/12/02 01:40:35;;;;;;;;;;;4.60;83.90;;;;;;4980586;28;19937;-43
2020/12/02 01:43:07;;;;;;;;;;;4.60;83.90;;;;;;4971047;28;20012;-45
2020/12/02 01:45:54;;;;;;;;;;;4.60;83.80;;;;;;4980487;28;19972;-46
2020/12/02 01:48:27;;;;;;;;;;;4.60;83.70;;;;;;4972158;28;20386;-46
2020/12/02 01:51:04;;;;;;;;;;;4.60;83.60;;;;;;4972549;28;19933;-45
2020/12/02 01:53:50;;;;;;;;;;;4.60;83.50;;;;;;4967853;28;20283;-44
2020/12/02 01:56:35;;;;;;;;;;;4.60;83.40;;;;;;4991878;28;20438;-45
2020/12/02 01:59:04;;;;;;;;;;;4.60;83.40;;;;;;4989394;28;19968;-46
2020/12/02 02:01:54;;;;;;;;;;;4.60;83.50;;;;;;4990047;28;19955;-45
2020/12/02 02:04:26;;;;;;;;;;;4.60;83.40;;;;;;4951129;28;19933;-45
2020/12/02 02:07:04;;;;;;;;;;;4.60;83.60;;;;;;4983128;28;19925;-45
2020/12/02 02:09:32;;;;;;;;;;;4.60;83.50;;;;;;4974507;28;20012;-45
2020/12/02 02:12:22;;;;;;;;;;;4.60;83.50;;;;;;4979409;28;19940;-45
2020/12/02 02:14:58;;;;;;;;;;;4.60;83.60;;;;;;4990156;28;19929;-46
2020/12/02 02:17:26;;;;;;;;;;;4.60;83.60;;;;;;4982221;28;19929;-46
2020/12/02 02:19:53;;;;;;;;;;;4.60;83.80;;;;;;4980525;28;20301;-45
2020/12/02 02:22:20;;;;;;;;;;;4.60;83.80;;;;;;4964769;28;19968;-46
2020/12/02 02:24:48;;;;;;;;;;;4.60;83.70;;;;;;4979310;28;19929;-46
2020/12/02 02:27:18;;;;;;;;;;;4.60;83.70;;;;;;4986321;28;19933;-47
2020/12/02 02:29:47;;;;;;;;;;;4.60;83.70;;;;;;4988406;28;20314;-46
2020/12/02 02:32:18;;;;;;;;;;;4.60;83.60;;;;;;4968138;28;19925;-44
2020/12/02 02:34:46;;;;;;;;;;;4.60;83.60;;;;;;4985505;28;20039;-45
2020/12/02 02:37:15;;;;;;;;;;;4.60;83.60;;;;;;4984705;28;19929;-45
2020/12/02 02:39:44;;;;;;;;;;;4.60;83.50;;;;;;4989381;28;20370;-45
2020/12/02 02:42:27;;;;;;;;;;;4.60;83.50;;;;;;4988446;28;20032;-45
2020/12/02 02:44:55;;;;;;;;;;;4.60;83.40;;;;;;4990400;28;19936;-43
2020/12/02 02:47:23;;;;;;;;;;;4.60;83.50;;;;;;4987153;28;19930;-42
2020/12/02 02:49:50;;;;;;;;;;;4.60;83.40;;;;;;4985069;28;19930;-46
2020/12/02 02:52:17;;;;;;;;;;;4.60;83.50;;;;;;4984536;28;19936;-44
2020/12/02 02:54:45;;;;;;;;;;;4.60;83.30;;;;;;4981059;28;19925;-45
2020/12/02 02:57:13;;;;;;;;;;;4.60;83.30;;;;;;4983960;28;19939;-45
2020/12/02 02:59:44;;;;;;;;;;;4.60;83.20;;;;;;4991041;28;19999;-45
2020/12/02 03:02:12;;;;;;;;;;;4.60;83.30;;;;;;4971384;28;19940;-46
2020/12/02 03:04:40;;;;;;;;;;;4.60;83.20;;;;;;4981633;28;19936;-43
2020/12/02 03:07:15;;;;;;;;;;;4.60;83.30;;;;;;4979962;28;19926;-44
2020/12/02 03:09:43;;;;;;;;;;;4.60;83.30;;;;;;4985885;28;19964;-45
2020/12/02 03:12:11;;;;;;;;;;;4.60;83.30;;;;;;4989244;28;20004;-44
2020/12/02 03:14:41;;;;;;;;;;;4.60;83.30;;;;;;4990792;28;19925;-45
2020/12/02 03:17:11;;;;;;;;;;;4.60;83.40;;;;;;4983776;28;20267;-45
2020/12/02 03:19:39;;;;;;;;;;;4.60;83.40;;;;;;4983601;28;19994;-44
2020/12/02 03:22:11;;;;;;;;;;;4.60;83.40;;;;;;4983149;28;19925;-45
2020/12/02 03:24:41;;;;;;;;;;;4.60;83.30;;;;;;4985057;28;19933;-46
2020/12/02 03:27:08;;;;;;;;;;;4.60;83.50;;;;;;4976964;28;20937;-46
2020/12/02 03:29:35;;;;;;;;;;;4.50;83.40;;;;;;4974228;28;20369;-46
2020/12/02 03:32:03;;;;;;;;;;;4.50;83.40;;;;;;4969810;28;19934;-43
2020/12/02 03:34:30;;;;;;;;;;;4.50;83.50;;;;;;4987372;28;20022;-45
2020/12/02 03:36:57;;;;;;;;;;;4.50;83.50;;;;;;4985386;28;19929;-46
2020/12/02 03:39:24;;;;;;;;;;;4.50;83.50;;;;;;4976708;28;19940;-43
2020/12/02 03:41:52;;;;;;;;;;;4.50;83.50;;;;;;4984010;28;19941;-45
2020/12/02 03:44:19;;;;;;;;;;;4.50;83.40;;;;;;4964604;28;19925;-44
2020/12/02 03:46:46;;;;;;;;;;;4.50;83.60;;;;;;4979412;28;20317;-46
2020/12/02 03:49:13;;;;;;;;;;;4.60;83.50;;;;;;4985132;28;20261;-43
2020/12/02 03:51:41;;;;;;;;;;;4.60;83.50;;;;;;4969871;28;19940;-45
2020/12/02 03:54:08;;;;;;;;;;;4.60;83.50;;;;;;4982939;28;20338;-46
2020/12/02 03:56:36;;;;;;;;;;;4.60;83.40;;;;;;4982751;28;19933;-45
2020/12/02 03:59:04;;;;;;;;;;;4.60;83.50;;;;;;4995678;28;19929;-44
2020/12/02 04:01:31;;;;;;;;;;;4.60;83.50;;;;;;4981916;28;19937;-43
2020/12/02 04:03:59;;;;;;;;;;;4.60;83.60;;;;;;4980928;28;20014;-44
2020/12/02 04:06:26;;;;;;;;;;;4.60;83.60;;;;;;4975307;28;19933;-45
2020/12/02 04:08:54;;;;;;;;;;;4.60;83.60;;;;;;4978074;28;19926;-45
2020/12/02 04:11:21;;;;;;;;;;;4.60;83.60;;;;;;4986145;28;19929;-44
2020/12/02 04:13:49;;;;;;;;;;;4.60;83.50;;;;;;4983738;28;19968;-46
2020/12/02 04:16:16;;;;;;;;;;;4.60;83.50;;;;;;4988763;28;19933;-44
2020/12/02 04:18:45;;;;;;;;;;;4.60;83.40;;;;;;4987553;28;19933;-43
2020/12/02 04:21:12;;;;;;;;;;;4.60;83.50;;;;;;4982401;28;19932;-42
2020/12/02 04:23:39;;;;;;;;;;;4.60;83.50;;;;;;4974078;28;20667;-44
2020/12/02 04:26:07;;;;;;;;;;;4.60;83.40;;;;;;4990707;28;19929;-45
2020/12/02 04:28:34;;;;;;;;;;;4.60;83.30;;;;;;4998220;28;19929;-43
2020/12/02 04:31:03;;;;;;;;;;;4.60;83.30;;;;;;4979407;28;20429;-44
2020/12/02 04:33:30;;;;;;;;;;;4.50;83.30;;;;;;4977100;28;19933;-46
2020/12/02 04:35:58;;;;;;;;;;;4.50;83.50;;;;;;4962520;28;20450;-46
2020/12/02 04:38:25;;;;;;;;;;;4.50;83.40;;;;;;4974594;28;20364;-43
2020/12/02 04:40:53;;;;;;;;;;;4.50;83.40;;;;;;4982384;28;19951;-44
2020/12/02 04:43:32;;;;;;;;;;;4.50;83.40;;;;;;4970159;28;20407;-45
2020/12/02 04:45:59;;;;;;;;;;;4.50;83.40;;;;;;4985139;28;20369;-44
2020/12/02 04:48:28;;;;;;;;;;;4.50;83.30;;;;;;4972852;28;19932;-44
2020/12/02 04:51:00;;;;;;;;;;;4.50;83.20;;;;;;4987413;28;19930;-44
2020/12/02 04:53:28;;;;;;;;;;;4.50;83.20;;;;;;4978360;28;19990;-44
2020/12/02 04:55:56;;;;;;;;;;;4.60;83.10;;;;;;4979442;28;19932;-45
2020/12/02 04:58:34;;;;;;;;;;;4.60;83.10;;;;;;4990496;28;19933;-45
2020/12/02 05:01:13;;;;;;;;;;;4.60;83.10;;;;;;4962461;28;19937;-45
2020/12/02 05:03:49;;;;;;;;;;;4.60;83.10;;;;;;4991575;28;19929;-45
2020/12/02 05:06:25;;;;;;;;;;;4.60;83.00;;;;;;4990598;28;19932;-44
2020/12/02 05:09:03;;;;;;;;;;;4.60;83.00;;;;;;4979941;28;19975;-44
2020/12/02 05:11:30;;;;;;;;;;;4.60;83.10;;;;;;4975983;28;19957;-44
2020/12/02 05:14:02;;;;;;;;;;;4.60;83.10;;;;;;4977470;28;19940;-46
2020/12/02 05:16:30;;;;;;;;;;;4.60;83.00;;;;;;4988208;28;20019;-45
2020/12/02 05:18:59;;;;;;;;;;;4.60;83.00;;;;;;4989651;28;19940;-45
2020/12/02 05:21:30;;;;;;;;;;;4.60;83.00;;;;;;4984441;28;19937;-47
2020/12/02 05:24:01;;;;;;;;;;;4.60;82.80;;;;;;4978826;28;19944;-44
2020/12/02 05:26:33;;;;;;;;;;;4.60;82.80;;;;;;4974573;28;19933;-46
2020/12/02 05:29:05;;;;;;;;;;;4.60;82.80;;;;;;4978163;28;20217;-45
2020/12/02 05:31:33;;;;;;;;;;;4.60;82.80;;;;;;4976772;28;19964;-45
2020/12/02 05:34:07;;;;;;;;;;;4.60;82.80;;;;;;4984409;28;20290;-44
2020/12/02 05:36:37;;;;;;;;;;;4.60;82.80;;;;;;4987205;28;19960;-45
2020/12/02 05:39:06;;;;;;;;;;;4.60;83.00;;;;;;4979593;28;19929;-45
2020/12/02 05:41:33;;;;;;;;;;;4.70;82.80;;;;;;4990508;28;19986;-46
2020/12/02 05:44:19;;;;;;;;;;;4.70;82.80;;;;;;4994821;28;20066;-45
2020/12/02 05:46:46;;;;;;;;;;;4.70;82.70;;;;;;4991143;28;19941;-44
2020/12/02 05:49:17;;;;;;;;;;;4.60;82.80;;;;;;4975013;28;20381;-43
2020/12/02 05:51:44;;;;;;;;;;;4.60;82.70;;;;;;4980522;28;19975;-43
2020/12/02 05:54:13;;;;;;;;;;;4.60;82.70;;;;;;4982560;28;19983;-45
2020/12/02 05:56:43;;;;;;;;;;;4.70;82.60;;;;;;4981681;28;19938;-43
2020/12/02 05:59:11;;;;;;;;;;;4.70;82.40;;;;;;4976491;28;19933;-45
2020/12/02 06:01:39;;;;;;;;;;;4.70;82.30;;;;;;4983900;28;20387;-44
2020/12/02 06:04:10;;;;;;;;;;;4.70;82.30;;;;;;4985528;28;19948;-46
2020/12/02 06:06:38;;;;;;;;;;;4.70;82.30;;;;;;4979858;28;19926;-44
2020/12/02 06:09:07;;;;;;;;;;;4.70;82.20;;;;;;4977784;28;20397;-45
2020/12/02 06:11:35;;;;;;;;;;;4.70;82.10;;;;;;4987231;28;19983;-45
2020/12/02 06:14:03;;;;;;;;;;;4.60;82.20;;;;;;4996607;28;19929;-46
2020/12/02 06:16:36;;;;;;;;;;;4.60;82.20;;;;;;4983021;28;19929;-43
2020/12/02 06:19:16;;;;;;;;;;;4.60;82.20;;;;;;4979668;28;19936;-45
2020/12/02 06:21:46;;;;;;;;;;;4.70;82.20;;;;;;4997707;28;20274;-46
2020/12/02 06:24:31;;;;;;;;;;;4.70;82.30;;;;;;4984696;28;19940;-45
2020/12/02 06:27:00;;;;;;;;;;;4.70;82.30;;;;;;4993404;28;19925;-45
2020/12/02 06:29:27;;;;;;;;;;;4.70;82.30;;;;;;4989490;28;20384;-45
2020/12/02 06:31:58;;;;;;;;;;;4.70;82.30;;;;;;4981449;28;20370;-45
2020/12/02 06:34:27;;;;;;;;;;;4.70;82.20;;;;;;4994404;28;20012;-43
2020/12/02 06:37:00;;;;;;;;;;;4.60;82.30;;;;;;4993829;28;19933;-46
2020/12/02 06:39:29;;;;;;;;;;;4.60;82.20;;;;;;4979984;28;20412;-45
2020/12/02 06:41:56;;;;;;;;;;;4.60;82.00;;;;;;4982403;28;19925;-45
2020/12/02 06:44:36;;;;;;;;;;;4.60;82.00;;;;;;4983495;28;20266;-46
2020/12/02 06:47:07;;;;;;;;;;;4.60;81.80;;;;;;4991850;28;19925;-44
2020/12/02 06:49:36;;;;;;;;;;;4.60;81.80;;;;;;4981131;28;20305;-44
2020/12/02 06:52:05;;;;;;;;;;;4.60;81.70;;;;;;4984766;28;20015;-46
2020/12/02 06:54:36;;;;;;;;;;;4.60;81.80;;;;;;4992455;28;20377;-43
2020/12/02 06:57:07;;;;;;;;;;;4.60;81.40;;;;;;4979866;28;20001;-46
2020/12/02 06:59:47;;;;;;;;;;;4.60;81.70;;;;;;4987864;28;19925;-44
2020/12/02 07:02:24;;;;;;;;;;;4.60;81.70;;;;;;4987040;28;19925;-44
2020/12/02 07:04:54;;;;;;;;;;;4.60;81.40;;;;;;4986960;28;19925;-46
2020/12/02 07:07:21;;;;;;;;;;;4.60;81.10;;;;;;4978022;28;19929;-45
2020/12/02 07:09:48;;;;;;;;;;;4.60;81.10;;;;;;4988714;28;19933;-46
2020/12/02 07:12:20;;;;;;;;;;;4.60;81.20;;;;;;4975096;28;19929;-46
2020/12/02 07:14:47;;;;;;;;;;;4.60;80.80;;;;;;4982221;28;19933;-44
2020/12/02 07:17:15;;;;;;;;;;;4.60;80.60;;;;;;4983053;28;20285;-45
2020/12/02 07:19:48;;;;;;;;;;;4.60;80.50;;;;;;4994234;28;20487;-45
2020/12/02 07:22:27;;;;;;;;;;;4.50;80.30;;;;;;4978416;28;19944;-45
2020/12/02 07:24:59;;;;;;;;;;;4.50;80.20;;;;;;4977175;28;19926;-45
2020/12/02 07:27:26;;;;;;;;;;;4.50;80.10;;;;;;4981480;28;20370;-44
2020/12/02 07:30:04;;;;;;;;;;;4.50;80.10;;;;;;4988999;28;19925;-46
2020/12/02 07:32:31;;;;;;;;;;;4.50;80.10;;;;;;4993359;28;20444;-45
2020/12/02 07:35:06;;;;;;;;;;;4.50;80.00;;;;;;4990494;28;19986;-45
2020/12/02 07:37:33;;;;;;;;;;;4.50;80.10;;;;;;4965848;28;20408;-43
2020/12/02 07:40:02;;;;;;;;;;;4.50;80.10;;;;;;4965381;28;19929;-46
2020/12/02 07:42:33;;;;;;;;;;;4.50;80.10;;;;;;4989606;28;19936;-46
2020/12/02 07:45:04;;;;;;;;;;;4.50;80.00;;;;;;4990814;28;20001;-44
2020/12/02 07:47:32;;;;;;;;;;;4.50;79.80;;;;;;4984969;28;20408;-46
2020/12/02 07:50:26;;;;;;;;;;;4.50;79.70;;;;;;4981481;28;20022;-48
2020/12/02 07:52:56;;;;;;;;;;;4.50;79.80;;;;;;4977990;28;19925;-45
2020/12/02 07:55:30;;;;;;;;;;;4.50;79.70;;;;;;4972796;28;19934;-46
2020/12/02 07:57:59;;;;;;;;;;;4.50;79.60;;;;;;4987739;28;20613;-46
2020/12/02 08:00:32;;;;;;;;;;;4.50;79.40;;;;;;4969194;28;19933;-43
2020/12/02 08:02:59;;;;;;;;;;;4.50;79.30;;;;;;4978192;28;19931;-45
2020/12/02 08:05:45;;;;;;;;;;;4.50;79.30;;;;;;4985475;28;19928;-42
2020/12/02 08:08:12;;;;;;;;;;;4.50;79.40;;;;;;4997167;28;19933;-44
2020/12/02 08:10:40;;;;;;;;;;;4.50;79.30;;;;;;4984028;28;20016;-45
2020/12/02 08:13:15;;;;;;;;;;;4.50;79.40;;;;;;4967233;28;19926;-43
2020/12/02 08:15:47;;;;;;;;;;;4.50;79.50;;;;;;4986355;28;19992;-45
2020/12/02 08:18:16;;;;;;;;;;;4.50;79.70;;;;;;4989116;28;20419;-45
2020/12/02 08:20:44;;;;;;;;;;;4.50;79.60;;;;;;4977158;28;19940;-44
2020/12/02 08:23:14;;;;;;;;;;;4.50;79.80;;;;;;4992108;28;20392;-45
2020/12/02 08:25:44;;;;;;;;;;;4.50;79.60;;;;;;4984185;28;19929;-43
2020/12/02 08:28:17;;;;;;;;;;;4.50;79.60;;;;;;4986907;28;19969;-44
2020/12/02 08:30:45;;;;;;;;;;;4.50;79.80;;;;;;4975975;28;19937;-44
2020/12/02 08:33:14;;;;;;;;;;;4.40;79.80;;;;;;4981095;28;20032;-44
2020/12/02 08:35:43;;;;;;;;;;;4.40;79.80;;;;;;4985095;28;19929;-45
2020/12/02 08:38:31;;;;;;;;;;;4.40;79.90;;;;;;4986138;28;19995;-46
2020/12/02 08:41:00;;;;;;;;;;;4.40;79.80;;;;;;4985872;28;20427;-46
2020/12/02 08:43:33;;;;;;;;;;;4.40;79.80;;;;;;4982367;28;19933;-44
2020/12/02 08:46:11;;;;;;;;;;;4.40;79.80;;;;;;4996842;28;19936;-46
2020/12/02 08:48:40;;;;;;;;;;;4.40;80.10;;;;;;4988197;28;19925;-42
2020/12/02 08:51:12;;;;;;;;;;;4.40;80.20;;;;;;4985143;28;21317;-46
2020/12/02 08:53:41;;;;;;;;;;;4.40;80.20;;;;;;4974692;28;19950;-44
2020/12/02 08:56:28;;;;;;;;;;;4.40;80.20;;;;;;4984050;28;19932;-43
2020/12/02 08:58:57;;;;;;;;;;;4.40;80.10;;;;;;4994635;28;19937;-44
2020/12/02 09:01:25;;;;;;;;;;;4.50;80.10;;;;;;4985032;28;19926;-44
2020/12/02 09:03:52;;;;;;;;;;;4.50;80.20;;;;;;4985539;28;19930;-45
2020/12/02 09:06:20;;;;;;;;;;;4.50;80.10;;;;;;4983888;28;20020;-46
2020/12/02 09:08:48;;;;;;;;;;;4.50;80.20;;;;;;4985742;28;19951;-44
2020/12/02 09:11:22;;;;;;;;;;;4.50;80.00;;;;;;4976704;28;19932;-43
2020/12/02 09:13:50;;;;;;;;;;;4.50;80.00;;;;;;4982141;28;19979;-45
2020/12/02 09:16:24;;;;;;;;;;;4.60;79.80;;;;;;4982176;28;19979;-44
2020/12/02 09:18:52;;;;;;;;;;;4.60;79.70;;;;;;4987431;28;19973;-45
2020/12/02 09:21:19;;;;;;;;;;;4.60;79.80;;;;;;4993288;28;20918;-43
2020/12/02 09:23:47;;;;;;;;;;;4.60;80.10;;;;;;4965863;28;19979;-44
2020/12/02 09:26:16;;;;;;;;;;;4.60;80.20;;;;;;4982065;28;19936;-46
2020/12/02 09:28:44;;;;;;;;;;;4.60;80.20;;;;;;4988142;28;20035;-43
2020/12/02 09:31:11;;;;;;;;;;;4.60;80.00;;;;;;4978094;28;19936;-45
2020/12/02 09:33:39;;;;;;;;;;;4.60;80.00;;;;;;4973557;28;19979;-45
2020/12/02 09:36:07;;;;;;;;;;;4.60;80.20;;;;;;4956789;28;20401;-45
2020/12/02 09:38:37;;;;;;;;;;;4.70;79.80;;;;;;4974868;28;21567;-46
2020/12/02 09:41:23;;;;;;;;;;;4.70;79.80;;;;;;4979571;28;19933;-43
2020/12/02 09:44:00;;;;;;;;;;;4.70;79.90;;;;;;4988672;28;19929;-44
2020/12/02 09:46:29;;;;;;;;;;;4.70;80.00;;;;;;4981256;28;20463;-44
2020/12/02 09:48:57;;;;;;;;;;;4.70;80.10;;;;;;4980966;28;19929;-44
2020/12/02 09:51:26;;;;;;;;;;;4.70;80.00;;;;;;4988440;28;19959;-45
2020/12/02 09:53:54;;;;;;;;;;;4.80;79.80;;;;;;4978917;28;20378;-42
2020/12/02 09:56:21;;;;;;;;;;;4.80;79.90;;;;;;4968245;28;20033;-44
2020/12/02 09:58:48;;;;;;;;;;;4.80;79.80;;;;;;4978146;28;19929;-44
2020/12/02 10:01:19;;;;;;;;;;;4.80;79.60;;;;;;4992845;28;19936;-44
2020/12/02 10:03:57;;;;;;;;;;;4.80;79.60;;;;;;4987528;28;19937;-44
2020/12/02 10:06:37;;;;;;;;;;;4.80;79.60;;;;;;4991259;28;19936;-43
2020/12/02 10:09:04;;;;;;;;;;;4.80;79.70;;;;;;4991637;28;19929;-43
2020/12/02 10:11:37;;;;;;;;;;;4.80;79.60;;;;;;4992313;28;19973;-42
2020/12/02 10:14:24;;;;;;;;;;;4.90;79.60;;;;;;4990616;28;19935;-44
2020/12/02 10:17:02;;;;;;;;;;;4.90;79.60;;;;;;4990587;28;19929;-43
2020/12/02 10:19:35;;;;;;;;;;;4.80;79.70;;;;;;4991710;28;19968;-44
2020/12/02 10:22:02;;;;;;;;;;;4.90;79.70;;;;;;4989018;28;19926;-43
2020/12/02 10:24:46;;;;;;;;;;;4.90;79.70;;;;;;4989986;28;19925;-44
2020/12/02 10:27:36;;;;;;;;;;;4.90;79.60;;;;;;4984775;28;19934;-44
2020/12/02 10:30:13;;;;;;;;;;;4.90;79.50;;;;;;4982291;28;20412;-42
2020/12/02 10:32:40;;;;;;;;;;;4.90;79.50;;;;;;4994408;28;19933;-42
2020/12/02 10:35:10;;;;;;;;;;;4.90;79.50;;;;;;4990573;28;19929;-44
2020/12/02 10:37:41;;;;;;;;;;;4.90;79.50;;;;;;4989926;28;19933;-44
2020/12/02 10:40:08;;;;;;;;;;;4.90;79.70;;;;;;4990351;28;20281;-45
2020/12/02 10:42:48;;;;;;;;;;;4.90;79.50;;;;;;4988599;28;19929;-42
2020/12/02 10:45:17;;;;;;;;;;;4.90;79.40;;;;;;4990757;28;20336;-45
2020/12/02 10:48:03;;;;;;;;;;;4.80;79.20;;;;;;4989657;28;20065;-44
2020/12/02 10:50:32;;;;;;;;;;;4.90;79.40;;;;;;4986729;28;19936;-45
2020/12/02 10:53:01;;;;;;;;;;;4.90;79.10;;;;;;4978997;28;21549;-44
2020/12/02 10:55:30;;;;;;;;;;;4.90;79.00;;;;;;4989450;28;19964;-43
2020/12/02 10:58:02;;;;;;;;;;;4.90;78.90;;;;;;4992166;28;20286;-45
2020/12/02 11:00:33;;;;;;;;;;;4.90;79.10;;;;;;4989054;28;20271;-46
2020/12/02 11:03:11;;;;;;;;;;;5.00;79.10;;;;;;4986744;28;19940;-45
2020/12/02 11:05:38;;;;;;;;;;;5.00;79.10;;;;;;4991605;28;19930;-45
2020/12/02 11:08:11;;;;;;;;;;;5.00;79.10;;;;;;4994000;28;19949;-46
2020/12/02 11:10:43;;;;;;;;;;;5.00;79.00;;;;;;4994131;28;20447;-47
2020/12/02 11:13:14;;;;;;;;;;;5.00;78.70;;;;;;4995065;28;20018;-47
2020/12/02 11:16:01;;;;;;;;;;;5.00;78.60;;;;;;4988888;28;19933;-45
2020/12/02 11:18:46;;;;;;;;;;;5.00;78.70;;;;;;4980225;28;19929;-46
2020/12/02 11:21:26;;;;;;;;;;;5.00;78.50;;;;;;4985809;28;19940;-45
2020/12/02 11:24:11;;;;;;;;;;;5.00;78.80;;;;;;4989223;28;20301;-46
2020/12/02 11:26:39;;;;;;;;;;;5.00;78.90;;;;;;4987078;28;20328;-46
2020/12/02 11:29:08;;;;;;;;;;;5.00;78.90;;;;;;4993813;28;19925;-43
2020/12/02 11:31:47;;;;;;;;;;;5.00;78.60;;;;;;4995963;28;19984;-45
2020/12/02 11:34:29;;;;;;;;;;;5.00;77.80;;;;;;4991846;28;20051;-45
2020/12/02 11:37:00;;;;;;;;;;;5.00;77.80;;;;;;4996514;28;19933;-46
2020/12/02 11:39:34;;;;;;;;;;;5.00;77.40;;;;;;4985689;28;20381;-43
2020/12/02 11:42:07;;;;;;;;;;;5.00;77.30;;;;;;4986437;28;19929;-44
2020/12/02 11:44:37;;;;;;;;;;;5.00;77.40;;;;;;4975639;28;19929;-43
2020/12/02 11:47:28;;;;;;;;;;;5.00;77.80;;;;;;4984533;28;19968;-43
2020/12/02 11:50:00;;;;;;;;;;;5.00;78.30;;;;;;4962632;28;19940;-47
2020/12/02 11:52:36;;;;;;;;;;;5.00;78.40;;;;;;4978488;28;19933;-46
2020/12/02 11:55:06;;;;;;;;;;;5.00;78.20;;;;;;4986055;28;19929;-45
2020/12/02 11:57:34;;;;;;;;;;;5.00;78.10;;;;;;4981368;28;20056;-47
2020/12/02 12:00:06;;;;;;;;;;;5.00;77.80;;;;;;4953053;28;19925;-43
2020/12/02 12:02:40;;;;;;;;;;;5.00;77.70;;;;;;4977061;28;20373;-46
2020/12/02 12:05:30;;;;;;;;;;;5.00;78.00;;;;;;4965740;28;20030;-41
2020/12/02 12:08:05;;;;;;;;;;;5.00;78.10;;;;;;4982451;28;19932;-47
2020/12/02 12:10:42;;;;;;;;;;;5.00;78.10;;;;;;4989883;28;20380;-46
2020/12/02 12:13:18;;;;;;;;;;;5.00;77.90;;;;;;4988897;28;19929;-44
2020/12/02 12:16:02;;;;;;;;;;;5.00;77.70;;;;;;4991386;28;19926;-45
2020/12/02 12:18:35;;;;;;;;;;;5.00;77.80;;;;;;4984853;28;19959;-45
2020/12/02 12:21:36;;;;;;;;;;;5.00;77.90;;;;;;4990056;28;19925;-46
2020/12/02 12:24:11;;;;;;;;;;;5.00;78.00;;;;;;4941718;28;19929;-47
2020/12/02 12:26:49;;;;;;;;;;;5.00;77.90;;;;;;4988955;28;20297;-44
2020/12/02 12:29:17;;;;;;;;;;;5.00;77.70;;;;;;4984207;28;20435;-46
2020/12/02 12:31:47;;;;;;;;;;;5.10;77.60;;;;;;4985607;28;19933;-42
2020/12/02 12:34:28;;;;;;;;;;;5.10;77.80;;;;;;4987194;28;19925;-45
2020/12/02 12:36:58;;;;;;;;;;;5.10;78.00;;;;;;4990791;28;19933;-47
2020/12/02 12:39:32;;;;;;;;;;;5.10;77.90;;;;;;4980386;28;20417;-44
2020/12/02 12:42:00;;;;;;;;;;;5.10;77.60;;;;;;4987109;28;19940;-44
2020/12/02 12:44:30;;;;;;;;;;;5.00;77.40;;;;;;4986436;28;20110;-45
2020/12/02 12:47:16;;;;;;;;;;;5.00;76.90;;;;;;4991933;28;19987;-44
2020/12/02 12:49:45;;;;;;;;;;;5.00;77.00;;;;;;4989113;28;20292;-46
2020/12/02 12:52:14;;;;;;;;;;;5.00;76.70;;;;;;4987184;28;20985;-45
2020/12/02 12:54:42;;;;;;;;;;;5.00;76.70;;;;;;4995284;28;19940;-47
2020/12/02 12:57:15;;;;;;;;;;;4.90;76.60;;;;;;4992834;28;20229;-43
2020/12/02 12:59:42;;;;;;;;;;;4.90;76.70;;;;;;4987970;28;20004;-46
2020/12/02 13:02:20;;;;;;;;;;;4.90;76.90;;;;;;4989300;28;20407;-46
2020/12/02 13:04:47;;;;;;;;;;;4.90;77.20;;;;;;4989963;28;19933;-44
2020/12/02 13:07:19;;;;;;;;;;;4.90;77.20;;;;;;4992142;28;20031;-44
2020/12/02 13:09:47;;;;;;;;;;;4.90;77.00;;;;;;4991727;28;20012;-46
2020/12/02 13:12:37;;;;;;;;;;;4.90;76.90;;;;;;4994452;28;20398;-45
2020/12/02 13:15:09;;;;;;;;;;;4.90;77.10;;;;;;4984458;28;19929;-46
2020/12/02 13:17:59;;;;;;;;;;;4.90;77.40;;;;;;4990329;28;19929;-45
2020/12/02 13:20:46;;;;;;;;;;;4.90;77.60;;;;;;4977607;28;19937;-42
2020/12/02 13:23:15;;;;;;;;;;;4.90;77.50;;;;;;4989535;28;20140;-45
2020/12/02 13:25:48;;;;;;;;;;;5.00;77.50;;;;;;4992034;28;20324;-45
2020/12/02 13:28:27;;;;;;;;;;;5.00;77.40;;;;;;4989454;28;20374;-45
2020/12/02 13:31:02;;;;;;;;;;;5.00;77.20;;;;;;4990314;28;19952;-45
2020/12/02 13:33:35;;;;;;;;;;;5.00;76.50;;;;;;4993124;28;20016;-46
2020/12/02 13:36:10;;;;;;;;;;;5.00;76.30;;;;;;4992970;28;19933;-42
2020/12/02 13:38:37;;;;;;;;;;;5.00;76.50;;;;;;4996450;28;19926;-44
2020/12/02 13:41:05;;;;;;;;;;;5.00;76.70;;;;;;4989512;28;19925;-45
2020/12/02 13:43:33;;;;;;;;;;;5.00;76.70;;;;;;4991451;28;19932;-45
2020/12/02 13:46:04;;;;;;;;;;;5.00;76.50;;;;;;4995165;28;19925;-44
2020/12/02 13:48:31;;;;;;;;;;;5.00;76.10;;;;;;4988315;28;19936;-44
2020/12/02 13:51:07;;;;;;;;;;;4.90;76.20;;;;;;4988039;28;19933;-45
2020/12/02 13:53:38;;;;;;;;;;;4.90;76.10;;;;;;4991210;28;19941;-44
2020/12/02 13:56:16;;;;;;;;;;;4.90;76.10;;;;;;4984268;28;20274;-43
2020/12/02 13:58:52;;;;;;;;;;;4.90;76.70;;;;;;4990802;28;20357;-45
2020/12/02 14:01:19;;;;;;;;;;;4.90;76.90;;;;;;4987354;28;19929;-46
2020/12/02 14:03:54;;;;;;;;;;;4.90;76.90;;;;;;4979207;28;20219;-45
2020/12/02 14:06:40;;;;;;;;;;;4.90;77.30;;;;;;4986425;28;20381;-45
2020/12/02 14:09:11;;;;;;;;;;;4.90;77.60;;;;;;4985155;28;20017;-45
2020/12/02 14:11:41;;;;;;;;;;;4.90;77.70;;;;;;4995489;28;19932;-44
2020/12/02 14:14:08;;;;;;;;;;;4.90;77.60;;;;;;4988180;28;20687;-45
2020/12/02 14:16:41;;;;;;;;;;;4.90;76.90;;;;;;4991683;28;21555;-45
2020/12/02 14:19:10;;;;;;;;;;;4.90;76.20;;;;;;4990671;28;19932;-44
2020/12/02 14:21:38;;;;;;;;;;;4.90;76.50;;;;;;4996027;28;20313;-43
2020/12/02 14:24:04;;;;;;;;;;;4.90;77.00;;;;;;4993586;28;19925;-46
2020/12/02 14:26:31;;;;;;;;;;;4.90;77.10;;;;;;4988415;28;19933;-46
2020/12/02 14:28:58;;;;;;;;;;;4.90;77.00;;;;;;4993729;28;20373;-46
2020/12/02 14:31:26;;;;;;;;;;;4.90;76.70;;;;;;4991778;28;19991;-46
2020/12/02 14:33:53;;;;;;;;;;;4.90;76.60;;;;;;4991170;28;19925;-45
2020/12/02 14:36:22;;;;;;;;;;;4.90;76.50;;;;;;5000919;28;19936;-47
2020/12/02 14:38:50;;;;;;;;;;;4.90;76.40;;;;;;4977473;28;19976;-46
2020/12/02 14:41:19;;;;;;;;;;;4.80;76.40;;;;;;4994826;28;19926;-46
2020/12/02 14:43:45;;;;;;;;;;;4.80;76.60;;;;;;4991635;28;19936;-46
2020/12/02 14:46:16;;;;;;;;;;;4.80;76.60;;;;;;4979363;28;20384;-47
2020/12/02 14:48:43;;;;;;;;;;;4.80;76.80;;;;;;4995779;28;19930;-46
2020/12/02 14:51:12;;;;;;;;;;;4.80;77.10;;;;;;4985426;28;20345;-46
2020/12/02 14:53:40;;;;;;;;;;;4.80;77.20;;;;;;4992231;28;20362;-46
2020/12/02 14:56:08;;;;;;;;;;;4.80;77.20;;;;;;4995040;28;20436;-45